»·PEaware :: SWA3801 KPHX-KDEN

SWA3801 :: KPHX-KDEN

FLIGHT INFORMATION

Flight Status: Arrived
Operator:
Southwest Airlines
More flights by this operator :: More flights under this callsign
Pilot: Sebastião J. (17445)
Aircraft: BOEING 737-800
(B738)
More flights by this aircraft type
Origin: KPHX Phoenix Sky Harbor Intl
United States
Destination: KDEN Denver Intl
United States
More flights between these airports :: More routes between these airports
Route: +YOTES5 YOOPR OURAY PEEKK3
File this flight plan on PilotEdge
Remarks:
Altitude:
(Current/Filed)
330ft
Speed:
(Current/Filed)
440kts
Departed: 13-Jan-18 08:05 PM
Arrived: 13-Jan-18 09:34 PM
Distance/Time
Traveled:
523nm/1:28
Distance/Time
To Go:
Arrived

Flight Plot

Page will automatically refresh every two minutes.


Map Options




Map Legend


Flown Route
Filed Route
Departure Airport
Arrival Airport
Navaid (VOR, NDB)
Fix

Horizontal Profiles

Position Reports

Time Latitude Longitude Heading Altitude Ground
Speed
13-Jan-18 19:14 33.433450 -111.996444 358 1142ft 0kts
13-Jan-18 19:15 33.433450 -111.996444 358 1142ft 0kts
13-Jan-18 19:16 33.433450 -111.996444 358 1142ft 0kts
13-Jan-18 19:17 33.433450 -111.996444 358 1142ft 0kts
13-Jan-18 19:18 33.433450 -111.996444 358 1142ft 0kts
13-Jan-18 19:19 33.433450 -111.996444 358 1142ft 0kts
13-Jan-18 19:20 33.433450 -111.996444 358 1142ft 0kts
13-Jan-18 19:21 33.433450 -111.996444 358 1142ft 0kts
13-Jan-18 19:22 33.433450 -111.996444 358 1142ft 0kts
13-Jan-18 19:23 33.433450 -111.996444 358 1142ft 0kts
13-Jan-18 19:24 33.433450 -111.996444 358 1142ft 0kts
13-Jan-18 19:25 33.433450 -111.996444 358 1142ft 0kts
13-Jan-18 19:26 33.433450 -111.996444 358 1142ft 0kts
13-Jan-18 19:27 33.433450 -111.996444 358 1142ft 0kts
13-Jan-18 19:28 33.433450 -111.996444 358 1142ft 0kts
13-Jan-18 19:29 33.433450 -111.996444 358 1142ft 0kts
13-Jan-18 19:30 33.433450 -111.996444 358 1142ft 0kts
13-Jan-18 19:31 33.433450 -111.996444 358 1142ft 0kts
13-Jan-18 19:32 33.433450 -111.996444 358 1142ft 0kts
13-Jan-18 19:33 33.433450 -111.996444 358 1142ft 0kts
13-Jan-18 19:34 33.433450 -111.996444 358 1142ft 0kts
13-Jan-18 19:35 33.433450 -111.996444 358 1142ft 0kts
13-Jan-18 19:36 33.433450 -111.996444 358 1142ft 0kts
13-Jan-18 19:37 33.433450 -111.996444 358 1142ft 0kts
13-Jan-18 19:38 33.433450 -111.996444 358 1142ft 0kts
13-Jan-18 19:39 33.433450 -111.996444 358 1142ft 0kts
13-Jan-18 19:40 33.433450 -111.996444 358 1142ft 0kts
13-Jan-18 19:41 33.433450 -111.996444 358 1142ft 0kts
13-Jan-18 19:42 33.433450 -111.996444 358 1142ft 0kts
13-Jan-18 19:43 33.433450 -111.996444 358 1142ft 0kts
13-Jan-18 19:44 33.433450 -111.996444 358 1142ft 0kts
13-Jan-18 19:45 33.433450 -111.996444 358 1142ft 0kts
13-Jan-18 19:46 33.433450 -111.996444 358 1142ft 0kts
13-Jan-18 19:47 33.433450 -111.996444 358 1142ft 0kts
13-Jan-18 19:48 33.433450 -111.996444 358 1142ft 0kts
13-Jan-18 19:49 33.433450 -111.996444 358 1142ft 0kts
13-Jan-18 19:50 33.433450 -111.996444 358 1142ft 0kts
13-Jan-18 19:51 33.433450 -111.996444 358 1142ft 0kts
13-Jan-18 19:52 33.433450 -111.996444 358 1142ft 0kts
13-Jan-18 19:53 33.433450 -111.996444 358 1142ft 0kts
13-Jan-18 19:54 33.433450 -111.996444 358 1142ft 0kts
13-Jan-18 19:55 33.432972 -111.996432 358 1142ft 2kts
13-Jan-18 19:56 33.432812 -111.996428 358 1142ft 0kts
13-Jan-18 19:57 33.432812 -111.996428 358 1142ft 0kts
13-Jan-18 19:58 33.432812 -111.996428 358 1142ft 0kts
13-Jan-18 19:59 33.432826 -111.996430 354 1142ft 2kts
13-Jan-18 20:00 33.432832 -111.998440 271 1142ft 7kts
13-Jan-18 20:01 33.432845 -112.001485 270 1142ft 8kts
13-Jan-18 20:02 33.432839 -112.004078 270 1142ft 9kts
13-Jan-18 20:03 33.432844 -112.007896 269 1142ft 8kts
13-Jan-18 20:04 33.432405 -112.009988 203 1142ft 5kts
13-Jan-18 20:05 33.432122 -112.014078 270 1142ft 14kts
13-Jan-18 20:06 33.432123 -112.018126 268 1142ft 16kts
13-Jan-18 20:07 33.432121 -112.023798 269 1142ft 19kts
13-Jan-18 20:08 33.432033 -112.026768 238 1142ft 2kts
13-Jan-18 20:09 33.432001 -112.026816 229 1142ft 0kts
13-Jan-18 20:10 33.431062 -112.026748 87 1142ft 0kts
13-Jan-18 20:11 33.430990 -112.004368 87 1144ft 166kts
13-Jan-18 20:12 33.434184 -111.943597 81 3634ft 186kts
13-Jan-18 20:13 33.441670 -111.880497 52 5818ft 220kts
13-Jan-18 20:14 33.506453 -111.851921 7 7726ft 276kts
13-Jan-18 20:15 33.584990 -111.844015 5 10460ft 290kts
13-Jan-18 20:16 33.673519 -111.830158 13 11792ft 354kts
13-Jan-18 20:17 33.771522 -111.797501 16 14096ft 375kts
13-Jan-18 20:18 33.862389 -111.730350 36 16493ft 395kts
13-Jan-18 20:19 33.951348 -111.647350 35 18711ft 411kts
13-Jan-18 20:20 34.044808 -111.565520 30 20916ft 420kts
13-Jan-18 20:25 34.565715 -111.165358 29 29181ft 460kts
13-Jan-18 20:26 34.674994 -111.085130 24 29425ft 455kts
13-Jan-18 20:27 34.767927 -111.025059 24 29447ft 454kts
13-Jan-18 20:28 34.897985 -110.939799 24 29466ft 454kts
13-Jan-18 20:29 34.990525 -110.879009 24 29469ft 453kts
13-Jan-18 20:30 35.101397 -110.805854 24 29469ft 453kts
13-Jan-18 20:31 35.230800 -110.720065 24 29470ft 453kts
13-Jan-18 20:32 35.322913 -110.658782 24 29470ft 452kts
13-Jan-18 20:33 35.452202 -110.572651 24 30407ft 450kts
13-Jan-18 20:34 35.542977 -110.511800 24 31784ft 445kts
13-Jan-18 20:35 35.649522 -110.434581 34 33229ft 446kts
13-Jan-18 20:36 35.736540 -110.322614 44 33475ft 454kts
13-Jan-18 20:37 35.818888 -110.205922 44 33478ft 452kts
13-Jan-18 20:38 35.901389 -110.088742 44 33479ft 451kts
13-Jan-18 20:39 35.983694 -109.971975 44 33481ft 451kts
13-Jan-18 20:40 36.066036 -109.854467 44 33482ft 451kts
13-Jan-18 20:41 36.147980 -109.737001 44 33484ft 451kts
13-Jan-18 20:42 36.229757 -109.619339 44 33486ft 451kts
13-Jan-18 20:43 36.311718 -109.500975 44 33488ft 451kts
13-Jan-18 20:44 36.393219 -109.382865 44 33490ft 451kts
13-Jan-18 20:45 36.474918 -109.264047 43 33490ft 451kts
13-Jan-18 20:46 36.556182 -109.145441 43 33491ft 450kts
13-Jan-18 20:47 36.637256 -109.026690 43 33489ft 451kts
13-Jan-18 20:48 36.718510 -108.907238 43 33487ft 451kts
13-Jan-18 20:49 36.799373 -108.787956 43 33471ft 450kts
13-Jan-18 20:50 36.880225 -108.668256 43 33462ft 450kts
13-Jan-18 20:51 36.960734 -108.548629 42 33454ft 450kts
13-Jan-18 20:52 37.041146 -108.428715 42 33455ft 450kts
13-Jan-18 20:53 37.121679 -108.308184 42 33456ft 450kts
13-Jan-18 20:54 37.201861 -108.187740 42 33459ft 450kts
13-Jan-18 20:55 37.282175 -108.066654 42 33459ft 450kts
13-Jan-18 20:56 37.362030 -107.945779 42 33462ft 449kts
13-Jan-18 20:57 37.441641 -107.824902 41 33469ft 449kts
13-Jan-18 20:58 37.521389 -107.703331 41 33477ft 449kts
13-Jan-18 20:59 37.600723 -107.581967 41 33486ft 449kts
13-Jan-18 21:00 37.680211 -107.459892 42 33493ft 449kts
13-Jan-18 21:01 37.759298 -107.337992 41 33493ft 449kts
13-Jan-18 21:02 37.838225 -107.215878 41 33497ft 449kts
13-Jan-18 21:03 37.917336 -107.093019 41 33519ft 449kts
13-Jan-18 21:04 37.995813 -106.970678 41 33520ft 449kts
13-Jan-18 21:05 38.074614 -106.847756 40 33526ft 448kts
13-Jan-18 21:06 38.152776 -106.724883 41 33514ft 446kts
13-Jan-18 21:07 38.230641 -106.602064 39 33514ft 445kts
13-Jan-18 21:08 38.317115 -106.492585 33 33523ft 436kts
13-Jan-18 21:09 38.404290 -106.385108 33 33496ft 437kts
13-Jan-18 21:10 38.490907 -106.277163 34 32490ft 429kts
13-Jan-18 21:11 38.575620 -106.171404 34 31490ft 423kts
13-Jan-18 21:12 38.659097 -106.066834 34 30490ft 416kts
13-Jan-18 21:13 38.741115 -105.963722 34 29487ft 409kts
13-Jan-18 21:14 38.821243 -105.862396 34 28487ft 401kts
13-Jan-18 21:15 38.900012 -105.762393 34 27483ft 393kts
13-Jan-18 21:16 38.976561 -105.665290 34 26205ft 382kts
13-Jan-18 21:17 39.050635 -105.570519 34 24601ft 371kts
13-Jan-18 21:18 39.123002 -105.477600 35 22703ft 365kts
13-Jan-18 21:19 39.194540 -105.385954 35 20706ft 361kts
13-Jan-18 21:20 39.263687 -105.298766 29 19394ft 322kts
13-Jan-18 21:21 39.331051 -105.232607 27 18229ft 294kts
13-Jan-18 21:22 39.396268 -105.168601 27 17036ft 303kts
13-Jan-18 21:23 39.463826 -105.103339 28 15833ft 299kts
13-Jan-18 21:24 39.529628 -105.038964 29 14632ft 293kts
13-Jan-18 21:25 39.594227 -104.975407 29 13423ft 289kts
13-Jan-18 21:26 39.656193 -104.914064 29 13009ft 266kts
13-Jan-18 21:27 39.712514 -104.858283 29 13018ft 244kts
13-Jan-18 21:28 39.774081 -104.841050 355 12332ft 225kts
13-Jan-18 21:29 39.836336 -104.840111 355 11434ft 225kts
13-Jan-18 21:30 39.900760 -104.839323 357 10271ft 238kts
13-Jan-18 21:31 39.968650 -104.839563 358 8873ft 250kts
13-Jan-18 21:32 40.039660 -104.839824 3 7478ft 260kts
13-Jan-18 21:33 40.085483 -104.783277 76 7062ft 236kts
13-Jan-18 21:34 40.096589 -104.705141 98 6994ft 210kts
13-Jan-18 21:35 40.052442 -104.660201 159 7048ft 211kts
13-Jan-18 21:36 39.994913 -104.655665 182 7031ft 206kts
13-Jan-18 21:37 39.940134 -104.658887 181 6824ft 178kts
13-Jan-18 21:38 39.895734 -104.660122 175 6189ft 151kts
13-Jan-18 21:39 39.854122 -104.660216 180 5451ft 142kts
13-Jan-18 21:40 39.837525 -104.660963 199 5439ft 20kts
13-Jan-18 21:41 39.835822 -104.662080 214 5439ft 10kts
13-Jan-18 21:42 39.838274 -104.662550 0 5439ft 9kts
13-Jan-18 21:43 39.841278 -104.662507 2 5439ft 9kts
13-Jan-18 21:44 39.844174 -104.662494 359 5439ft 12kts
13-Jan-18 21:45 39.849525 -104.662434 0 5439ft 16kts
13-Jan-18 21:46 39.853662 -104.662382 0 5439ft 20kts
13-Jan-18 21:47 39.858357 -104.662382 0 5439ft 21kts
13-Jan-18 21:48 39.864027 -104.662290 1 5439ft 16kts
13-Jan-18 21:49 39.864803 -104.665616 211 5439ft 10kts
13-Jan-18 21:50 39.864180 -104.670195 270 5439ft 21kts
13-Jan-18 21:51 39.863703 -104.671584 211 5439ft 0kts
13-Jan-18 21:52 39.863703 -104.671584 211 5439ft 0kts

Navigation Log

Ident Type
Flight plan parsing failed, navigation log unavailable